sensor_id;sensor_type;location;lat;lon;timestamp;pressure;altitude;pressure_sealevel;temperature;humidity
42411;BME280;28056;51.112;0.984;2023-05-12T00:04:49;100948.37;;;11.90;65.25
42411;BME280;28056;51.112;0.984;2023-05-12T00:07:16;100950.84;;;11.96;66.02
42411;BME280;28056;51.112;0.984;2023-05-12T00:09:43;100953.60;;;12.03;66.49
42411;BME280;28056;51.112;0.984;2023-05-12T00:12:11;100951.28;;;11.34;69.39
42411;BME280;28056;51.112;0.984;2023-05-12T00:14:38;100951.97;;;12.35;66.17
42411;BME280;28056;51.112;0.984;2023-05-12T00:17:06;100952.76;;;11.93;68.29
42411;BME280;28056;51.112;0.984;2023-05-12T00:19:34;100952.74;;;11.53;70.42
42411;BME280;28056;51.112;0.984;2023-05-12T00:22:02;100956.41;;;11.50;71.03
42411;BME280;28056;51.112;0.984;2023-05-12T00:24:29;100951.16;;;11.79;70.94
42411;BME280;28056;51.112;0.984;2023-05-12T00:26:57;100951.65;;;11.75;70.83
42411;BME280;28056;51.112;0.984;2023-05-12T00:29:24;100949.87;;;11.99;70.07
42411;BME280;28056;51.112;0.984;2023-05-12T00:31:52;100949.09;;;12.29;68.89
42411;BME280;28056;51.112;0.984;2023-05-12T00:34:19;100950.48;;;12.11;70.18
42411;BME280;28056;51.112;0.984;2023-05-12T00:36:46;100947.34;;;10.79;73.75
42411;BME280;28056;51.112;0.984;2023-05-12T00:39:13;100950.09;;;11.45;72.99
42411;BME280;28056;51.112;0.984;2023-05-12T00:41:41;100951.48;;;11.64;72.52
42411;BME280;28056;51.112;0.984;2023-05-12T00:44:09;100955.62;;;12.13;71.99
42411;BME280;28056;51.112;0.984;2023-05-12T00:46:36;100955.32;;;12.25;70.88
42411;BME280;28056;51.112;0.984;2023-05-12T00:49:04;100958.26;;;12.39;69.78
42411;BME280;28056;51.112;0.984;2023-05-12T00:51:31;100961.28;;;12.54;68.87
42411;BME280;28056;51.112;0.984;2023-05-12T00:53:58;100966.47;;;11.97;70.26
42411;BME280;28056;51.112;0.984;2023-05-12T00:56:26;100968.61;;;12.50;70.28
42411;BME280;28056;51.112;0.984;2023-05-12T00:58:53;100966.79;;;13.02;68.56
42411;BME280;28056;51.112;0.984;2023-05-12T01:01:21;100968.53;;;12.84;68.43
42411;BME280;28056;51.112;0.984;2023-05-12T01:03:49;100968.92;;;12.69;69.08
42411;BME280;28056;51.112;0.984;2023-05-12T01:06:20;100965.11;;;11.87;71.54
42411;BME280;28056;51.112;0.984;2023-05-12T01:08:49;100964.04;;;12.14;71.64
42411;BME280;28056;51.112;0.984;2023-05-12T01:11:17;100960.23;;;12.54;70.82
42411;BME280;28056;51.112;0.984;2023-05-12T01:13:44;100960.81;;;12.65;69.32
42411;BME280;28056;51.112;0.984;2023-05-12T01:16:12;100958.77;;;12.43;70.14
42411;BME280;28056;51.112;0.984;2023-05-12T01:18:43;100960.62;;;12.28;70.95
42411;BME280;28056;51.112;0.984;2023-05-12T01:21:12;100963.23;;;12.20;71.75
42411;BME280;28056;51.112;0.984;2023-05-12T01:23:45;100965.16;;;12.51;70.90
42411;BME280;28056;51.112;0.984;2023-05-12T01:26:14;100963.13;;;13.09;68.45
42411;BME280;28056;51.112;0.984;2023-05-12T01:28:42;100961.23;;;13.45;67.36
42411;BME280;28056;51.112;0.984;2023-05-12T01:31:10;100959.74;;;13.13;67.72
42411;BME280;28056;51.112;0.984;2023-05-12T01:33:38;100964.35;;;13.05;68.67
42411;BME280;28056;51.112;0.984;2023-05-12T01:36:05;100964.71;;;13.04;68.92
42411;BME280;28056;51.112;0.984;2023-05-12T01:38:32;100961.89;;;13.47;67.13
42411;BME280;28056;51.112;0.984;2023-05-12T01:41:00;100964.73;;;13.28;67.27
42411;BME280;28056;51.112;0.984;2023-05-12T01:43:28;100965.63;;;13.33;66.97
42411;BME280;28056;51.112;0.984;2023-05-12T01:45:55;100967.27;;;12.70;67.75
42411;BME280;28056;51.112;0.984;2023-05-12T01:48:22;100970.39;;;13.17;67.13
42411;BME280;28056;51.112;0.984;2023-05-12T01:50:49;100966.35;;;13.79;64.19
42411;BME280;28056;51.112;0.984;2023-05-12T01:53:17;100969.66;;;13.31;66.01
42411;BME280;28056;51.112;0.984;2023-05-12T01:55:44;100966.80;;;13.98;63.97
42411;BME280;28056;51.112;0.984;2023-05-12T01:58:11;100968.74;;;13.68;63.93
42411;BME280;28056;51.112;0.984;2023-05-12T02:00:38;100965.55;;;13.82;65.53
42411;BME280;28056;51.112;0.984;2023-05-12T02:03:05;100967.03;;;13.33;67.64
42411;BME280;28056;51.112;0.984;2023-05-12T02:05:33;100968.89;;;13.49;65.94
42411;BME280;28056;51.112;0.984;2023-05-12T02:08:00;100974.23;;;13.03;67.81
42411;BME280;28056;51.112;0.984;2023-05-12T02:10:28;100971.33;;;13.36;66.11
42411;BME280;28056;51.112;0.984;2023-05-12T02:12:55;100976.96;;;13.02;67.50
42411;BME280;28056;51.112;0.984;2023-05-12T02:15:22;100978.70;;;13.26;67.00
42411;BME280;28056;51.112;0.984;2023-05-12T02:17:50;100979.28;;;12.49;68.84
42411;BME280;28056;51.112;0.984;2023-05-12T02:20:17;100979.79;;;11.05;74.19
42411;BME280;28056;51.112;0.984;2023-05-12T02:22:45;100981.24;;;12.24;71.15
42411;BME280;28056;51.112;0.984;2023-05-12T02:25:13;100984.27;;;12.80;68.87
42411;BME280;28056;51.112;0.984;2023-05-12T02:27:40;100985.91;;;12.65;69.20
42411;BME280;28056;51.112;0.984;2023-05-12T02:30:08;100987.71;;;12.26;70.86
42411;BME280;28056;51.112;0.984;2023-05-12T02:32:36;100988.48;;;11.44;72.65
42411;BME280;28056;51.112;0.984;2023-05-12T02:35:03;100992.72;;;11.86;72.09
42411;BME280;28056;51.112;0.984;2023-05-12T02:37:30;100992.82;;;11.23;73.66
42411;BME280;28056;51.112;0.984;2023-05-12T02:39:59;100989.41;;;10.98;75.06
42411;BME280;28056;51.112;0.984;2023-05-12T02:42:27;100987.33;;;11.17;75.22
42411;BME280;28056;51.112;0.984;2023-05-12T02:44:54;100991.50;;;11.31;74.97
42411;BME280;28056;51.112;0.984;2023-05-12T02:47:22;100991.02;;;10.98;75.77
42411;BME280;28056;51.112;0.984;2023-05-12T02:49:49;100998.32;;;11.72;73.60
42411;BME280;28056;51.112;0.984;2023-05-12T02:52:16;100997.82;;;12.19;71.40
42411;BME280;28056;51.112;0.984;2023-05-12T02:54:44;100997.91;;;12.38;70.90
42411;BME280;28056;51.112;0.984;2023-05-12T02:57:10;100992.78;;;11.37;74.32
42411;BME280;28056;51.112;0.984;2023-05-12T02:59:38;100997.61;;;11.47;74.11
42411;BME280;28056;51.112;0.984;2023-05-12T03:02:05;100991.18;;;10.78;74.75
42411;BME280;28056;51.112;0.984;2023-05-12T03:04:33;100993.62;;;11.78;72.37
42411;BME280;28056;51.112;0.984;2023-05-12T03:07:00;100986.73;;;11.49;72.97
42411;BME280;28056;51.112;0.984;2023-05-12T03:09:28;100985.87;;;11.71;73.04
42411;BME280;28056;51.112;0.984;2023-05-12T03:11:59;100985.67;;;10.88;75.90
42411;BME280;28056;51.112;0.984;2023-05-12T03:14:26;100988.97;;;11.46;74.49
42411;BME280;28056;51.112;0.984;2023-05-12T03:16:54;100985.41;;;11.15;75.76
42411;BME280;28056;51.112;0.984;2023-05-12T03:19:22;100983.84;;;11.22;75.00
42411;BME280;28056;51.112;0.984;2023-05-12T03:21:49;100989.65;;;11.59;74.11
42411;BME280;28056;51.112;0.984;2023-05-12T03:24:16;100987.94;;;10.77;77.30
42411;BME280;28056;51.112;0.984;2023-05-12T03:26:44;100987.68;;;10.95;77.42
42411;BME280;28056;51.112;0.984;2023-05-12T03:29:11;100991.18;;;11.35;74.99
42411;BME280;28056;51.112;0.984;2023-05-12T03:31:39;100993.45;;;10.40;77.38
42411;BME280;28056;51.112;0.984;2023-05-12T03:34:07;100994.03;;;11.33;74.67
42411;BME280;28056;51.112;0.984;2023-05-12T03:36:34;100993.97;;;12.02;72.01
42411;BME280;28056;51.112;0.984;2023-05-12T03:39:01;100992.64;;;11.57;72.01
42411;BME280;28056;51.112;0.984;2023-05-12T03:41:30;100992.64;;;11.85;72.04
42411;BME280;28056;51.112;0.984;2023-05-12T03:43:58;100985.32;;;11.24;73.49
42411;BME280;28056;51.112;0.984;2023-05-12T03:46:25;100986.15;;;11.36;71.93
42411;BME280;28056;51.112;0.984;2023-05-12T03:48:52;100983.73;;;11.85;71.92
42411;BME280;28056;51.112;0.984;2023-05-12T03:51:20;100986.27;;;12.59;69.41
42411;BME280;28056;51.112;0.984;2023-05-12T03:53:47;100984.28;;;12.10;70.20
42411;BME280;28056;51.112;0.984;2023-05-12T03:56:15;100984.76;;;11.58;71.68
42411;BME280;28056;51.112;0.984;2023-05-12T03:58:43;100986.11;;;11.54;72.87
42411;BME280;28056;51.112;0.984;2023-05-12T04:01:10;100988.32;;;11.78;72.93
42411;BME280;28056;51.112;0.984;2023-05-12T04:03:38;100987.76;;;11.95;72.45
42411;BME280;28056;51.112;0.984;2023-05-12T04:06:06;100988.59;;;12.25;71.74
42411;BME280;28056;51.112;0.984;2023-05-12T04:08:34;100984.50;;;11.61;72.80
42411;BME280;28056;51.112;0.984;2023-05-12T04:11:01;100988.74;;;12.29;71.19
42411;BME280;28056;51.112;0.984;2023-05-12T04:13:30;100984.76;;;11.33;73.37
42411;BME280;28056;51.112;0.984;2023-05-12T04:15:58;100989.08;;;11.29;74.66
42411;BME280;28056;51.112;0.984;2023-05-12T04:18:27;100989.81;;;11.33;74.97
42411;BME280;28056;51.112;0.984;2023-05-12T04:20:55;100988.38;;;11.46;74.89
42411;BME280;28056;51.112;0.984;2023-05-12T04:23:23;100996.36;;;11.77;73.19
42411;BME280;28056;51.112;0.984;2023-05-12T04:25:50;100995.07;;;11.36;73.41
42411;BME280;28056;51.112;0.984;2023-05-12T04:28:18;100992.29;;;11.37;73.69
42411;BME280;28056;51.112;0.984;2023-05-12T04:30:45;100997.10;;;12.30;71.45
42411;BME280;28056;51.112;0.984;2023-05-12T04:33:13;100995.95;;;11.98;72.12
42411;BME280;28056;51.112;0.984;2023-05-12T04:35:40;100994.95;;;11.61;73.13
42411;BME280;28056;51.112;0.984;2023-05-12T04:38:07;100993.59;;;11.83;71.59
42411;BME280;28056;51.112;0.984;2023-05-12T04:40:35;100998.17;;;11.79;71.63
42411;BME280;28056;51.112;0.984;2023-05-12T04:43:02;100998.55;;;11.88;72.05
42411;BME280;28056;51.112;0.984;2023-05-12T04:45:30;101002.80;;;10.85;75.13
42411;BME280;28056;51.112;0.984;2023-05-12T04:47:57;101006.25;;;11.23;74.41
42411;BME280;28056;51.112;0.984;2023-05-12T04:50:25;101011.85;;;11.40;74.04
42411;BME280;28056;51.112;0.984;2023-05-12T04:52:53;101015.29;;;12.37;71.68
42411;BME280;28056;51.112;0.984;2023-05-12T04:55:20;101017.07;;;12.37;71.37
42411;BME280;28056;51.112;0.984;2023-05-12T04:57:48;101019.52;;;12.54;70.80
42411;BME280;28056;51.112;0.984;2023-05-12T05:00:16;101018.21;;;12.11;72.10
42411;BME280;28056;51.112;0.984;2023-05-12T05:02:43;101018.86;;;11.96;72.13
42411;BME280;28056;51.112;0.984;2023-05-12T05:05:16;101024.30;;;11.89;72.32
42411;BME280;28056;51.112;0.984;2023-05-12T05:07:44;101025.26;;;12.03;72.38
42411;BME280;28056;51.112;0.984;2023-05-12T05:10:12;101028.02;;;11.99;72.66
42411;BME280;28056;51.112;0.984;2023-05-12T05:12:42;101028.36;;;12.13;72.49
42411;BME280;28056;51.112;0.984;2023-05-12T05:15:09;101033.73;;;11.33;73.42
42411;BME280;28056;51.112;0.984;2023-05-12T05:17:36;101036.42;;;12.46;71.86
42411;BME280;28056;51.112;0.984;2023-05-12T05:20:05;101037.86;;;11.69;74.31
42411;BME280;28056;51.112;0.984;2023-05-12T05:22:33;101047.42;;;12.31;72.01
42411;BME280;28056;51.112;0.984;2023-05-12T05:25:01;101047.49;;;12.16;71.51
42411;BME280;28056;51.112;0.984;2023-05-12T05:27:27;101048.88;;;11.25;74.38
42411;BME280;28056;51.112;0.984;2023-05-12T05:29:54;101052.25;;;11.67;74.53
42411;BME280;28056;51.112;0.984;2023-05-12T05:32:22;101055.17;;;11.18;75.94
42411;BME280;28056;51.112;0.984;2023-05-12T05:34:49;101054.64;;;10.97;76.11
42411;BME280;28056;51.112;0.984;2023-05-12T05:37:17;101058.35;;;10.41;78.11
42411;BME280;28056;51.112;0.984;2023-05-12T05:39:45;101060.50;;;10.56;78.75
42411;BME280;28056;51.112;0.984;2023-05-12T05:42:12;101058.09;;;11.22;76.54
42411;BME280;28056;51.112;0.984;2023-05-12T05:44:39;101066.36;;;10.62;79.71
42411;BME280;28056;51.112;0.984;2023-05-12T05:47:07;101070.96;;;10.64;78.19
42411;BME280;28056;51.112;0.984;2023-05-12T05:49:34;101070.41;;;10.16;81.28
42411;BME280;28056;51.112;0.984;2023-05-12T05:52:02;101069.38;;;10.41;81.04
42411;BME280;28056;51.112;0.984;2023-05-12T05:54:30;101071.94;;;10.87;80.33
42411;BME280;28056;51.112;0.984;2023-05-12T05:56:58;101077.38;;;11.05;81.09
42411;BME280;28056;51.112;0.984;2023-05-12T05:59:25;101075.91;;;10.59;79.64
42411;BME280;28056;51.112;0.984;2023-05-12T06:01:53;101078.33;;;10.91;79.40
42411;BME280;28056;51.112;0.984;2023-05-12T06:04:20;101085.42;;;11.16;77.93
42411;BME280;28056;51.112;0.984;2023-05-12T06:06:47;101087.30;;;11.48;76.45
42411;BME280;28056;51.112;0.984;2023-05-12T06:09:15;101087.46;;;11.99;73.79
42411;BME280;28056;51.112;0.984;2023-05-12T06:11:43;101087.35;;;11.35;74.74
42411;BME280;28056;51.112;0.984;2023-05-12T06:14:10;101086.32;;;11.97;73.56
42411;BME280;28056;51.112;0.984;2023-05-12T06:16:38;101086.72;;;12.76;71.25
42411;BME280;28056;51.112;0.984;2023-05-12T06:19:05;101092.16;;;12.37;72.69
42411;BME280;28056;51.112;0.984;2023-05-12T06:21:32;101085.38;;;11.76;73.79
42411;BME280;28056;51.112;0.984;2023-05-12T06:24:00;101085.34;;;11.07;77.25
42411;BME280;28056;51.112;0.984;2023-05-12T06:26:28;101087.56;;;10.56;78.90
42411;BME280;28056;51.112;0.984;2023-05-12T06:28:55;101090.48;;;12.66;73.49
42411;BME280;28056;51.112;0.984;2023-05-12T06:31:23;101089.26;;;11.92;75.35
42411;BME280;28056;51.112;0.984;2023-05-12T06:33:50;101089.87;;;11.98;74.81
42411;BME280;28056;51.112;0.984;2023-05-12T06:36:17;101088.80;;;11.70;74.87
42411;BME280;28056;51.112;0.984;2023-05-12T06:38:44;101091.55;;;10.84;78.56
42411;BME280;28056;51.112;0.984;2023-05-12T06:41:12;101089.06;;;10.73;78.83
42411;BME280;28056;51.112;0.984;2023-05-12T06:43:40;101093.80;;;11.31;77.51
42411;BME280;28056;51.112;0.984;2023-05-12T06:46:08;101087.50;;;11.70;76.58
42411;BME280;28056;51.112;0.984;2023-05-12T06:48:35;101085.00;;;11.10;78.34
42411;BME280;28056;51.112;0.984;2023-05-12T06:51:03;101073.95;;;10.96;78.74
42411;BME280;28056;51.112;0.984;2023-05-12T06:53:30;101078.35;;;11.45;75.89
42411;BME280;28056;51.112;0.984;2023-05-12T06:55:58;101082.56;;;12.20;73.08
42411;BME280;28056;51.112;0.984;2023-05-12T06:58:26;101084.59;;;12.38;73.10
42411;BME280;28056;51.112;0.984;2023-05-12T07:00:53;101085.36;;;12.80;72.16
42411;BME280;28056;51.112;0.984;2023-05-12T07:03:21;101085.72;;;12.55;71.13
42411;BME280;28056;51.112;0.984;2023-05-12T07:05:48;101088.87;;;12.28;72.47
42411;BME280;28056;51.112;0.984;2023-05-12T07:08:16;101091.51;;;13.05;71.00
42411;BME280;28056;51.112;0.984;2023-05-12T07:10:43;101088.94;;;12.89;69.50
42411;BME280;28056;51.112;0.984;2023-05-12T07:13:10;101090.69;;;13.21;67.79
42411;BME280;28056;51.112;0.984;2023-05-12T07:15:38;101095.23;;;13.46;67.53
42411;BME280;28056;51.112;0.984;2023-05-12T07:18:06;101093.31;;;12.52;70.88
42411;BME280;28056;51.112;0.984;2023-05-12T07:20:33;101093.03;;;13.14;68.27
42411;BME280;28056;51.112;0.984;2023-05-12T07:23:01;101094.60;;;12.99;70.52
42411;BME280;28056;51.112;0.984;2023-05-12T07:25:29;101096.17;;;12.82;69.73
42411;BME280;28056;51.112;0.984;2023-05-12T07:27:57;101096.69;;;11.84;72.09
42411;BME280;28056;51.112;0.984;2023-05-12T07:30:24;101103.81;;;12.95;69.51
42411;BME280;28056;51.112;0.984;2023-05-12T07:32:52;101102.65;;;12.91;68.95
42411;BME280;28056;51.112;0.984;2023-05-12T07:35:20;101097.28;;;12.72;68.53
42411;BME280;28056;51.112;0.984;2023-05-12T07:37:47;101099.55;;;11.85;72.32
42411;BME280;28056;51.112;0.984;2023-05-12T07:40:15;101101.33;;;11.67;73.48
42411;BME280;28056;51.112;0.984;2023-05-12T07:42:43;101098.55;;;12.45;71.71
42411;BME280;28056;51.112;0.984;2023-05-12T07:45:10;101098.88;;;11.42;71.65
42411;BME280;28056;51.112;0.984;2023-05-12T07:47:38;101098.62;;;11.50;72.68
42411;BME280;28056;51.112;0.984;2023-05-12T07:50:06;101099.76;;;12.04;71.69
42411;BME280;28056;51.112;0.984;2023-05-12T07:52:33;101103.09;;;13.00;70.79
42411;BME280;28056;51.112;0.984;2023-05-12T07:55:01;101103.64;;;12.05;71.04
42411;BME280;28056;51.112;0.984;2023-05-12T07:57:29;101107.68;;;12.86;69.45
42411;BME280;28056;51.112;0.984;2023-05-12T07:59:56;101104.88;;;13.19;66.15
42411;BME280;28056;51.112;0.984;2023-05-12T08:02:24;101107.26;;;13.59;65.59
42411;BME280;28056;51.112;0.984;2023-05-12T08:04:52;101108.59;;;12.82;68.27
42411;BME280;28056;51.112;0.984;2023-05-12T08:07:19;101103.89;;;13.19;67.59
42411;BME280;28056;51.112;0.984;2023-05-12T08:09:47;101107.19;;;12.15;69.09
42411;BME280;28056;51.112;0.984;2023-05-12T08:12:15;101092.98;;;11.45;69.65
42411;BME280;28056;51.112;0.984;2023-05-12T08:14:42;101101.82;;;12.56;66.42
42411;BME280;28056;51.112;0.984;2023-05-12T08:17:10;101104.48;;;12.67;68.43
42411;BME280;28056;51.112;0.984;2023-05-12T08:19:37;101105.70;;;13.11;68.20
42411;BME280;28056;51.112;0.984;2023-05-12T08:22:04;101105.21;;;12.94;67.30
42411;BME280;28056;51.112;0.984;2023-05-12T08:24:32;101106.81;;;12.74;68.62
42411;BME280;28056;51.112;0.984;2023-05-12T08:27:00;101103.34;;;12.87;67.30
42411;BME280;28056;51.112;0.984;2023-05-12T08:29:28;101100.32;;;13.33;64.52
42411;BME280;28056;51.112;0.984;2023-05-12T08:31:56;101107.44;;;13.50;64.21
42411;BME280;28056;51.112;0.984;2023-05-12T08:34:24;101104.06;;;12.74;65.56
42411;BME280;28056;51.112;0.984;2023-05-12T08:36:52;101105.61;;;13.43;66.79
42411;BME280;28056;51.112;0.984;2023-05-12T08:39:20;101105.18;;;13.82;65.93
42411;BME280;28056;51.112;0.984;2023-05-12T08:41:52;101104.42;;;13.40;66.31
42411;BME280;28056;51.112;0.984;2023-05-12T08:44:23;101098.53;;;12.71;67.83
42411;BME280;28056;51.112;0.984;2023-05-12T08:46:53;101098.60;;;11.76;71.17
42411;BME280;28056;51.112;0.984;2023-05-12T08:49:26;101092.64;;;11.50;72.62
42411;BME280;28056;51.112;0.984;2023-05-12T08:51:56;101094.79;;;11.51;74.91
42411;BME280;28056;51.112;0.984;2023-05-12T08:54:27;101088.21;;;11.16;76.38
42411;BME280;28056;51.112;0.984;2023-05-12T08:56:55;101092.13;;;12.13;73.93
42411;BME280;28056;51.112;0.984;2023-05-12T08:59:23;101087.40;;;11.17;77.04
42411;BME280;28056;51.112;0.984;2023-05-12T09:01:52;101087.44;;;11.71;75.49
42411;BME280;28056;51.112;0.984;2023-05-12T09:04:21;101084.46;;;10.82;76.63
42411;BME280;28056;51.112;0.984;2023-05-12T09:06:48;101084.88;;;10.09;80.94
42411;BME280;28056;51.112;0.984;2023-05-12T09:09:16;101083.52;;;10.80;81.45
42411;BME280;28056;51.112;0.984;2023-05-12T09:11:47;101085.12;;;10.91;81.46
42411;BME280;28056;51.112;0.984;2023-05-12T09:14:18;101079.29;;;11.22;82.68
42411;BME280;28056;51.112;0.984;2023-05-12T09:16:52;101079.10;;;9.88;85.43
42411;BME280;28056;51.112;0.984;2023-05-12T09:19:22;101076.15;;;9.94;87.76
42411;BME280;28056;51.112;0.984;2023-05-12T09:21:50;101077.55;;;10.34;87.86
42411;BME280;28056;51.112;0.984;2023-05-12T09:24:17;101079.52;;;10.21;88.90
42411;BME280;28056;51.112;0.984;2023-05-12T09:26:46;101075.03;;;10.08;88.70
42411;BME280;28056;51.112;0.984;2023-05-12T09:29:48;101071.22;;;10.90;88.11
42411;BME280;28056;51.112;0.984;2023-05-12T09:32:15;101079.10;;;10.34;87.57
42411;BME280;28056;51.112;0.984;2023-05-12T09:34:42;101075.56;;;10.07;89.20
42411;BME280;28056;51.112;0.984;2023-05-12T09:37:10;101070.42;;;11.19;86.10
42411;BME280;28056;51.112;0.984;2023-05-12T09:39:37;101067.92;;;10.71;86.59
42411;BME280;28056;51.112;0.984;2023-05-12T09:42:10;101066.88;;;10.99;84.61
42411;BME280;28056;51.112;0.984;2023-05-12T09:44:39;101065.16;;;10.61;86.02
42411;BME280;28056;51.112;0.984;2023-05-12T09:47:07;101064.90;;;10.22;88.68
42411;BME280;28056;51.112;0.984;2023-05-12T09:49:35;101066.55;;;10.20;87.77
42411;BME280;28056;51.112;0.984;2023-05-12T09:52:03;101071.66;;;10.83;87.72
42411;BME280;28056;51.112;0.984;2023-05-12T09:54:32;101071.42;;;10.38;87.81
42411;BME280;28056;51.112;0.984;2023-05-12T09:57:01;101068.63;;;10.59;86.89
42411;BME280;28056;51.112;0.984;2023-05-12T09:59:31;101067.45;;;9.85;89.59
42411;BME280;28056;51.112;0.984;2023-05-12T10:01:59;101068.27;;;10.39;88.45
42411;BME280;28056;51.112;0.984;2023-05-12T10:04:28;101065.65;;;9.22;91.61
42411;BME280;28056;51.112;0.984;2023-05-12T10:06:58;101062.37;;;9.67;95.24
42411;BME280;28056;51.112;0.984;2023-05-12T10:09:29;101065.80;;;9.53;93.77
42411;BME280;28056;51.112;0.984;2023-05-12T10:11:59;101061.69;;;8.90;97.39
42411;BME280;28056;51.112;0.984;2023-05-12T10:14:29;101058.26;;;8.85;98.44
42411;BME280;28056;51.112;0.984;2023-05-12T10:16:58;101063.81;;;8.96;98.03
42411;BME280;28056;51.112;0.984;2023-05-12T10:19:38;101065.17;;;9.14;96.99
42411;BME280;28056;51.112;0.984;2023-05-12T10:22:09;101073.71;;;8.97;98.30
42411;BME280;28056;51.112;0.984;2023-05-12T10:24:38;101056.04;;;9.63;95.77
42411;BME280;28056;51.112;0.984;2023-05-12T10:27:07;101059.56;;;9.57;97.73
42411;BME280;28056;51.112;0.984;2023-05-12T10:29:36;101053.24;;;9.96;96.45
42411;BME280;28056;51.112;0.984;2023-05-12T10:32:04;101054.61;;;9.14;95.70
42411;BME280;28056;51.112;0.984;2023-05-12T10:34:33;101063.90;;;9.58;96.64
42411;BME280;28056;51.112;0.984;2023-05-12T10:37:03;101062.50;;;9.62;93.90
42411;BME280;28056;51.112;0.984;2023-05-12T10:39:31;101068.13;;;9.66;94.87
42411;BME280;28056;51.112;0.984;2023-05-12T10:42:00;101076.58;;;9.70;94.56
42411;BME280;28056;51.112;0.984;2023-05-12T10:44:28;101077.70;;;9.79;95.52
42411;BME280;28056;51.112;0.984;2023-05-12T10:46:56;101082.23;;;10.62;91.09
42411;BME280;28056;51.112;0.984;2023-05-12T10:50:00;101088.98;;;10.66;90.28
42411;BME280;28056;51.112;0.984;2023-05-12T10:52:38;101086.74;;;10.94;87.57
42411;BME280;28056;51.112;0.984;2023-05-12T10:55:16;101089.47;;;10.53;89.34
42411;BME280;28056;51.112;0.984;2023-05-12T10:58:02;101094.02;;;11.10;86.92
42411;BME280;28056;51.112;0.984;2023-05-12T11:00:48;101090.10;;;11.07;85.84
42411;BME280;28056;51.112;0.984;2023-05-12T11:03:21;101088.84;;;10.21;89.88
42411;BME280;28056;51.112;0.984;2023-05-12T11:05:58;101084.49;;;10.45;87.77
42411;BME280;28056;51.112;0.984;2023-05-12T11:08:26;101081.78;;;10.50;87.86
42411;BME280;28056;51.112;0.984;2023-05-12T11:11:55;101079.59;;;10.98;88.11
42411;BME280;28056;51.112;0.984;2023-05-12T11:14:38;101075.55;;;11.27;87.23
42411;BME280;28056;51.112;0.984;2023-05-12T11:17:18;101079.96;;;11.39;87.79
42411;BME280;28056;51.112;0.984;2023-05-12T11:20:22;101076.76;;;11.85;85.26
42411;BME280;28056;51.112;0.984;2023-05-12T11:22:59;101075.13;;;11.70;86.87
42411;BME280;28056;51.112;0.984;2023-05-12T11:25:27;101085.67;;;10.95;87.77
42411;BME280;28056;51.112;0.984;2023-05-12T11:27:54;101077.09;;;11.14;88.09
42411;BME280;28056;51.112;0.984;2023-05-12T11:30:22;101074.77;;;11.46;87.14
42411;BME280;28056;51.112;0.984;2023-05-12T11:32:59;101081.67;;;11.17;86.78
42411;BME280;28056;51.112;0.984;2023-05-12T11:35:30;101074.54;;;11.04;88.23
42411;BME280;28056;51.112;0.984;2023-05-12T11:37:57;101083.45;;;11.22;85.98
42411;BME280;28056;51.112;0.984;2023-05-12T11:40:26;101086.81;;;11.33;85.95
42411;BME280;28056;51.112;0.984;2023-05-12T11:42:53;101080.12;;;11.40;84.54
42411;BME280;28056;51.112;0.984;2023-05-12T11:45:25;101081.99;;;11.42;83.48
42411;BME280;28056;51.112;0.984;2023-05-12T11:48:04;101082.42;;;11.78;82.48
42411;BME280;28056;51.112;0.984;2023-05-12T11:50:31;101083.31;;;12.05;82.85
42411;BME280;28056;51.112;0.984;2023-05-12T11:52:58;101086.44;;;11.75;83.69
42411;BME280;28056;51.112;0.984;2023-05-12T11:55:26;101079.54;;;12.10;82.38
42411;BME280;28056;51.112;0.984;2023-05-12T11:57:56;101087.07;;;12.24;80.78
42411;BME280;28056;51.112;0.984;2023-05-12T12:00:30;101079.94;;;11.18;84.07
42411;BME280;28056;51.112;0.984;2023-05-12T12:03:13;101076.51;;;11.00;86.55
42411;BME280;28056;51.112;0.984;2023-05-12T12:05:43;101090.54;;;11.21;86.92
42411;BME280;28056;51.112;0.984;2023-05-12T12:08:13;101084.50;;;11.08;86.47
42411;BME280;28056;51.112;0.984;2023-05-12T12:11:22;101086.45;;;11.25;87.70
42411;BME280;28056;51.112;0.984;2023-05-12T12:14:30;101082.76;;;11.14;88.37
42411;BME280;28056;51.112;0.984;2023-05-12T12:17:10;101082.05;;;11.16;89.04
42411;BME280;28056;51.112;0.984;2023-05-12T12:21:03;101083.94;;;11.78;88.03
42411;BME280;28056;51.112;0.984;2023-05-12T12:23:36;101085.44;;;11.75;86.74
42411;BME280;28056;51.112;0.984;2023-05-12T12:26:04;101079.57;;;11.46;85.74
42411;BME280;28056;51.112;0.984;2023-05-12T12:29:07;101081.51;;;12.48;84.14
42411;BME280;28056;51.112;0.984;2023-05-12T12:32:05;101080.32;;;10.96;91.04
42411;BME280;28056;51.112;0.984;2023-05-12T12:34:44;101080.17;;;11.87;87.13
42411;BME280;28056;51.112;0.984;2023-05-12T12:37:11;101072.60;;;11.66;88.10
42411;BME280;28056;51.112;0.984;2023-05-12T12:39:39;101077.28;;;12.06;84.47
42411;BME280;28056;51.112;0.984;2023-05-12T12:42:06;101072.83;;;12.66;84.01
42411;BME280;28056;51.112;0.984;2023-05-12T12:44:35;101072.34;;;11.69;86.36
42411;BME280;28056;51.112;0.984;2023-05-12T12:47:03;101074.01;;;12.21;84.94
42411;BME280;28056;51.112;0.984;2023-05-12T12:50:26;101069.32;;;12.15;85.35
42411;BME280;28056;51.112;0.984;2023-05-12T12:53:03;101076.04;;;12.07;82.84
42411;BME280;28056;51.112;0.984;2023-05-12T12:55:41;101070.62;;;10.98;84.88
42411;BME280;28056;51.112;0.984;2023-05-12T12:58:28;101064.58;;;12.00;85.08
42411;BME280;28056;51.112;0.984;2023-05-12T13:01:06;101067.79;;;10.43;88.56
42411;BME280;28056;51.112;0.984;2023-05-12T13:03:43;101077.90;;;10.94;89.10
42411;BME280;28056;51.112;0.984;2023-05-12T13:06:41;101076.36;;;12.02;85.67
42411;BME280;28056;51.112;0.984;2023-05-12T13:09:18;101074.23;;;11.78;84.93